Time;durP1;ratioP1;P1;durP2;ratioP2;P2;SDS_P1;SDS_P2;PMS_P1;PMS_P2;Temp;Humidity;BMP_temperature;BMP_pressure;BME280_temperature;BME280_humidity;BME280_pressure;Samples;Min_cycle;Max_cycle;Signal;HPM_P1;HPM_P2
2021/10/20 00:00:32;;;;;;;6.57;2.13;;;;;;;5.27;52.75;99525.41;4949950;29;20055;-80
2021/10/20 00:02:58;;;;;;;4.40;1.40;;;;;;;5.35;52.61;99525.00;4944024;29;20564;-81
2021/10/20 00:05:27;;;;;;;5.93;1.42;;;;;;;5.37;52.49;99527.47;4917677;29;20055;-80
2021/10/20 00:07:53;;;;;;;7.28;1.67;;;;;;;5.31;52.54;99525.75;4940319;29;20047;-80
2021/10/20 00:10:20;;;;;;;6.55;1.52;;;;;;;5.17;52.78;99503.56;4952009;28;20051;-80
2021/10/20 00:12:47;;;;;;;9.53;2.10;;;;;;;5.17;52.94;99530.66;4936592;29;20055;-79
2021/10/20 00:15:22;;;;;;;7.28;1.48;;;;;;;4.99;52.81;99515.44;4935856;29;20299;-80
2021/10/20 00:17:49;;;;;;;5.25;1.58;;;;;;;5.18;53.06;99543.97;4933818;29;20051;-79
2021/10/20 00:20:19;;;;;;;10.70;1.67;;;;;;;5.04;52.97;99521.78;4949460;29;20547;-78
2021/10/20 00:22:46;;;;;;;4.95;1.60;;;;;;;5.12;52.74;99539.53;4916274;29;20079;-79
2021/10/20 00:25:16;;;;;;;5.78;1.70;;;;;;;5.07;52.98;99545.69;4933066;29;20059;-79
2021/10/20 00:27:42;;;;;;;10.27;2.28;;;;;;;5.10;53.01;99549.78;4943068;29;20059;-78
2021/10/20 00:30:14;;;;;;;7.55;1.88;;;;;;;5.08;52.99;99541.94;4935625;29;20063;-79
2021/10/20 00:32:42;;;;;;;5.43;1.60;;;;;;;5.09;53.03;99556.28;4951742;29;20054;-79
2021/10/20 00:35:16;;;;;;;11.18;1.75;;;;;;;5.00;52.88;99555.06;4951217;29;20047;-79
2021/10/20 00:37:42;;;;;;;5.05;1.70;;;;;;;4.93;52.88;99541.66;4950892;29;20074;-79
2021/10/20 00:40:12;;;;;;;6.72;1.85;;;;;;;4.99;52.95;99551.50;4932877;29;20516;-79
2021/10/20 00:42:43;;;;;;;8.95;1.88;;;;;;;4.95;52.80;99548.47;4945139;29;20055;-78
2021/10/20 00:45:10;;;;;;;5.55;1.73;;;;;;;4.92;52.88;99553.56;4952729;28;20057;-78
2021/10/20 00:47:38;;;;;;;7.40;1.60;;;;;;;4.89;52.65;99557.56;4952108;29;20087;-78
2021/10/20 00:50:07;;;;;;;5.32;1.77;;;;;;;4.71;52.46;99558.56;4950098;28;20055;-78
2021/10/20 00:52:36;;;;;;;5.53;1.80;;;;;;;4.87;52.38;99573.25;4950524;29;20059;-79
2021/10/20 00:55:04;;;;;;;8.75;1.67;;;;;;;4.86;52.22;99574.31;4931384;29;20051;-78
2021/10/20 00:57:31;;;;;;;4.40;1.55;;;;;;;4.78;52.40;99570.09;4932711;29;20056;-78
2021/10/20 01:00:04;;;;;;;7.35;1.58;;;;;;;4.69;52.47;99563.41;4949990;29;20062;-79
2021/10/20 01:02:30;;;;;;;5.85;1.70;;;;;;;4.69;52.65;99574.25;4950811;29;20055;-78
2021/10/20 01:04:59;;;;;;;9.02;1.98;;;;;;;4.70;52.42;99575.09;4952931;28;20523;-78
2021/10/20 01:07:26;;;;;;;4.05;1.80;;;;;;;4.55;52.99;99554.78;4949263;29;20059;-79
2021/10/20 01:09:55;;;;;;;7.47;2.00;;;;;;;4.65;52.90;99575.81;4949306;29;20066;-79
2021/10/20 01:12:22;;;;;;;6.80;2.03;;;;;;;4.62;53.06;99568.16;4950631;28;20069;-79
2021/10/20 01:14:51;;;;;;;4.25;1.70;;;;;;;4.63;52.98;99576.03;4952830;29;20054;-79
2021/10/20 01:17:22;;;;;;;6.68;1.90;;;;;;;4.59;53.17;99577.59;4918352;29;20586;-79
2021/10/20 01:19:50;;;;;;;6.72;2.00;;;;;;;4.51;53.16;99550.88;4951286;28;20082;-79
2021/10/20 01:22:18;;;;;;;5.68;1.90;;;;;;;4.52;53.01;99557.94;4950900;29;20062;-78
2021/10/20 01:24:44;;;;;;;6.57;1.85;;;;;;;4.60;53.04;99575.69;4951252;28;20138;-78
2021/10/20 01:27:10;;;;;;;5.63;1.90;;;;;;;4.43;53.10;99552.06;4935637;29;20555;-78
2021/10/20 01:29:39;;;;;;;6.15;1.80;;;;;;;4.47;53.36;99565.97;4935786;29;20059;-79
2021/10/20 01:32:06;;;;;;;5.88;1.95;;;;;;;4.45;53.35;99571.63;4949277;29;20110;-78
2021/10/20 01:34:32;;;;;;;4.83;1.80;;;;;;;4.38;53.58;99574.47;4937994;29;20163;-78
2021/10/20 01:37:03;;;;;;;6.05;1.90;;;;;;;4.38;53.58;99570.94;4953287;29;20091;-78
2021/10/20 01:39:31;;;;;;;7.35;2.15;;;;;;;4.22;53.52;99543.56;4954004;29;20590;-79
2021/10/20 01:41:57;;;;;;;5.68;1.98;;;;;;;4.29;53.82;99566.94;4922484;29;20113;-77
2021/10/20 01:44:23;;;;;;;7.88;2.05;;;;;;;4.32;53.80;99564.59;4953749;28;20051;-78
2021/10/20 01:46:49;;;;;;;9.73;2.13;;;;;;;4.22;53.86;99567.91;4954587;28;20062;-78
2021/10/20 01:49:16;;;;;;;7.38;2.00;;;;;;;4.24;53.71;99576.59;4904261;29;20118;-79
2021/10/20 01:51:42;;;;;;;6.63;2.20;;;;;;;4.25;53.97;99572.03;4947637;29;20055;-79
2021/10/20 01:54:08;;;;;;;6.82;1.98;;;;;;;4.24;53.85;99578.50;4932379;29;20059;-78
2021/10/20 01:56:36;;;;;;;5.40;1.80;;;;;;;4.14;53.67;99556.63;4955335;29;20055;-79
2021/10/20 01:59:02;;;;;;;5.68;2.20;;;;;;;4.19;53.49;99575.66;4949688;29;20059;-79
2021/10/20 02:01:28;;;;;;;4.93;1.85;;;;;;;4.25;53.48;99583.66;4936881;29;20054;-78
2021/10/20 02:03:54;;;;;;;3.58;1.60;;;;;;;4.30;53.01;99582.16;4950296;29;20066;-79
2021/10/20 02:06:20;;;;;;;6.97;1.90;;;;;;;4.29;53.06;99589.44;4947249;29;20154;-79
2021/10/20 02:08:47;;;;;;;7.25;2.00;;;;;;;4.21;53.26;99589.78;4921804;29;20062;-79
2021/10/20 02:11:14;;;;;;;4.80;1.65;;;;;;;4.20;53.17;99583.56;4943397;29;20051;-79
2021/10/20 02:13:45;;;;;;;9.82;2.05;;;;;;;4.11;53.29;99583.13;4956189;29;20047;-79
2021/10/20 02:16:12;;;;;;;6.97;1.80;;;;;;;4.13;53.35;99590.16;4934592;29;20591;-79
2021/10/20 02:18:43;;;;;;;8.43;1.80;;;;;;;3.46;53.13;99500.25;4936190;29;20051;-80
2021/10/20 02:21:15;;;;;;;7.03;1.88;;;;;;;3.45;53.12;99490.50;4953223;29;20058;-79
2021/10/20 02:23:43;;;;;;;5.82;1.77;;;;;;;3.37;53.40;99487.09;4937197;29;20440;-78
2021/10/20 02:26:13;;;;;;;6.63;2.03;;;;;;;3.58;53.03;99527.25;4954258;29;20051;-80
2021/10/20 02:28:44;;;;;;;4.97;1.70;;;;;;;3.95;53.23;99595.47;4953849;29;20047;-79
2021/10/20 02:31:13;;;;;;;5.63;1.85;;;;;;;3.47;53.10;99523.50;4938244;29;20055;-79
2021/10/20 02:33:55;;;;;;;5.80;1.90;;;;;;;3.37;53.10;99503.31;4953870;28;20134;-79
2021/10/20 02:36:34;;;;;;;9.00;2.20;;;;;;;3.39;53.29;99503.06;4953782;29;20062;-79
2021/10/20 02:39:07;;;;;;;5.88;1.83;;;;;;;3.95;53.31;99606.28;4952555;28;20052;-77
2021/10/20 02:41:33;;;;;;;8.25;2.30;;;;;;;3.94;53.34;99609.25;4954070;28;20051;-77
2021/10/20 02:44:01;;;;;;;5.53;1.92;;;;;;;3.86;53.48;99596.06;4935907;29;20070;-78
2021/10/20 02:46:27;;;;;;;12.45;2.58;;;;;;;3.81;53.30;99596.75;4953158;29;20077;-80
2021/10/20 02:48:53;;;;;;;17.52;7.70;;;;;;;3.82;53.57;99604.66;4953570;28;20063;-78
2021/10/20 02:51:19;;;;;;;16.27;7.10;;;;;;;3.87;53.54;99609.34;4952861;28;20059;-78
2021/10/20 02:53:48;;;;;;;13.07;5.20;;;;;;;3.89;53.26;99609.09;4938209;29;20401;-78
2021/10/20 02:56:15;;;;;;;11.02;4.45;;;;;;;3.78;53.55;99592.66;4933953;29;20580;-78
2021/10/20 02:58:41;;;;;;;18.73;7.03;;;;;;;3.80;53.24;99600.53;4946990;29;20061;-78
2021/10/20 03:01:08;;;;;;;16.25;7.32;;;;;;;3.80;53.55;99608.63;4934711;29;20114;-79
2021/10/20 03:03:38;;;;;;;15.40;6.35;;;;;;;3.78;53.54;99619.72;4948303;29;20063;-78
2021/10/20 03:06:03;;;;;;;14.00;5.13;;;;;;;3.78;53.65;99622.41;4950150;29;20048;-79
2021/10/20 03:08:30;;;;;;;15.90;7.32;;;;;;;3.80;53.50;99625.69;4943587;29;20060;-78
2021/10/20 03:10:57;;;;;;;16.42;5.45;;;;;;;3.85;53.50;99634.97;4937698;29;20088;-79
2021/10/20 03:13:26;;;;;;;11.85;3.72;;;;;;;3.78;53.50;99654.03;4937265;29;20074;-79
2021/10/20 03:15:54;;;;;;;16.90;5.03;;;;;;;3.76;53.64;99656.16;4950149;29;20139;-78
2021/10/20 03:18:22;;;;;;;16.90;7.25;;;;;;;3.85;53.51;99652.06;4929196;29;20063;-78
2021/10/20 03:20:48;;;;;;;18.65;6.72;;;;;;;3.88;53.61;99664.25;4951608;29;20142;-78
2021/10/20 03:23:14;;;;;;;17.02;5.97;;;;;;;3.84;53.99;99663.94;4937527;29;20158;-78
2021/10/20 03:25:40;;;;;;;14.05;4.50;;;;;;;3.65;54.33;99650.47;4943157;28;20067;-78
2021/10/20 03:28:06;;;;;;;11.23;3.75;;;;;;;3.71;54.68;99661.44;4928197;29;20349;-78
2021/10/20 03:30:32;;;;;;;9.43;3.30;;;;;;;3.70;54.78;99660.59;4952634;28;20142;-79
2021/10/20 03:33:01;;;;;;;10.80;3.55;;;;;;;3.74;54.69;99672.59;4953345;29;20432;-79
2021/10/20 03:35:29;;;;;;;7.88;3.00;;;;;;;3.46;55.05;99643.50;4933619;29;20098;-79
2021/10/20 03:37:55;;;;;;;11.80;3.08;;;;;;;3.47;55.09;99642.44;4953905;29;20086;-79
2021/10/20 03:40:21;;;;;;;8.80;2.53;;;;;;;3.74;54.88;99672.59;4921103;29;20047;-79
2021/10/20 03:42:47;;;;;;;9.02;2.60;;;;;;;3.71;54.76;99673.06;4953509;28;20059;-79
2021/10/20 03:45:13;;;;;;;9.35;2.70;;;;;;;3.71;54.76;99670.38;4953269;28;20110;-79
2021/10/20 03:47:39;;;;;;;8.73;2.90;;;;;;;3.56;54.78;99662.69;4951294;28;20067;-79
2021/10/20 03:50:06;;;;;;;12.70;3.10;;;;;;;3.72;54.71;99673.91;4953193;28;20054;-79
2021/10/20 03:52:37;;;;;;;9.52;3.40;;;;;;;3.66;54.79;99675.66;4948300;28;20600;-82
2021/10/20 03:55:04;;;;;;;10.02;2.88;;;;;;;3.66;54.75;99679.16;4942417;29;20146;-81
2021/10/20 03:57:33;;;;;;;7.95;2.83;;;;;;;3.72;54.65;99687.44;4949020;28;20055;-83
2021/10/20 04:00:06;;;;;;;8.32;2.80;;;;;;;3.72;54.76;99682.03;4932036;29;20154;-79
2021/10/20 04:02:42;;;;;;;7.65;2.60;;;;;;;3.67;54.92;99691.66;4935238;29;20378;-79
2021/10/20 04:05:09;;;;;;;9.15;2.90;;;;;;;3.64;54.63;99673.16;4947745;28;20058;-79
2021/10/20 04:07:39;;;;;;;9.18;3.00;;;;;;;3.64;54.69;99681.28;4951541;29;20054;-78
2021/10/20 04:10:12;;;;;;;9.15;2.80;;;;;;;3.61;54.71;99681.75;4951740;29;20071;-80
2021/10/20 04:12:38;;;;;;;9.05;2.85;;;;;;;3.59;54.72;99672.22;4952968;28;20051;-79
2021/10/20 04:15:05;;;;;;;9.63;2.88;;;;;;;3.67;54.43;99683.53;4952035;28;20061;-79
2021/10/20 04:17:31;;;;;;;7.32;2.50;;;;;;;3.71;54.42;99702.00;4948029;29;20151;-78
2021/10/20 04:20:00;;;;;;;8.07;2.97;;;;;;;3.73;54.40;99697.19;4948290;29;20142;-79
2021/10/20 04:22:29;;;;;;;6.57;2.30;;;;;;;3.59;54.62;99691.97;4951730;29;20055;-79
2021/10/20 04:24:56;;;;;;;7.25;2.10;;;;;;;3.55;54.48;99707.81;4951723;28;20107;-79
2021/10/20 04:27:26;;;;;;;9.23;2.30;;;;;;;3.49;54.39;99700.66;4934884;29;20059;-79
2021/10/20 04:29:52;;;;;;;7.07;2.10;;;;;;;3.49;54.43;99702.50;4951634;29;20593;-78
2021/10/20 04:32:18;;;;;;;7.35;2.20;;;;;;;3.48;54.47;99706.28;4952384;28;20138;-79
2021/10/20 04:34:47;;;;;;;9.23;2.33;;;;;;;3.57;54.28;99712.19;4952305;28;20051;-79
2021/10/20 04:37:13;;;;;;;11.55;2.83;;;;;;;3.67;53.63;99691.66;4951567;29;20062;-79
2021/10/20 04:39:42;;;;;;;10.75;2.58;;;;;;;3.56;53.88;99673.53;4953348;28;20055;-79
2021/10/20 04:42:09;;;;;;;9.23;2.40;;;;;;;3.61;53.66;99684.44;4934344;29;20138;-78
2021/10/20 04:44:35;;;;;;;12.25;2.40;;;;;;;3.66;53.72;99689.97;4950034;28;20523;-78
2021/10/20 04:47:07;;;;;;;9.68;3.20;;;;;;;3.75;53.34;99682.38;4953530;29;20504;-79
2021/10/20 04:49:33;;;;;;;15.43;5.70;;;;;;;3.80;53.13;99681.66;4950704;28;20059;-79
2021/10/20 04:51:59;;;;;;;13.57;4.35;;;;;;;3.78;53.27;99692.72;4952980;28;20071;-79
2021/10/20 04:54:25;;;;;;;14.85;4.85;;;;;;;3.81;53.27;99689.56;4934640;29;20353;-78
2021/10/20 04:56:54;;;;;;;26.00;8.20;;;;;;;3.91;53.08;99694.38;4951549;29;20102;-79
2021/10/20 04:59:24;;;;;;;28.08;8.73;;;;;;;3.91;53.36;99686.28;4946569;28;20060;-79
2021/10/20 05:01:53;;;;;;;50.47;14.43;;;;;;;3.93;53.16;99691.47;4934277;29;20059;-78
2021/10/20 05:04:19;;;;;;;42.67;13.38;;;;;;;3.95;53.12;99692.84;4951890;28;20062;-79
2021/10/20 05:06:45;;;;;;;39.38;12.18;;;;;;;4.05;52.80;99692.28;4935055;29;20057;-79
2021/10/20 05:09:14;;;;;;;39.15;12.27;;;;;;;4.00;52.90;99684.03;4953760;28;20055;-79
2021/10/20 05:11:40;;;;;;;40.63;13.32;;;;;;;4.04;52.85;99695.22;4956788;28;20052;-79
2021/10/20 05:14:08;;;;;;;39.70;13.35;;;;;;;4.11;53.02;99696.78;4955183;29;20121;-79
2021/10/20 05:16:39;;;;;;;30.20;9.23;;;;;;;4.20;52.68;99693.69;4955188;29;20106;-78
2021/10/20 05:19:05;;;;;;;30.77;10.82;;;;;;;4.22;52.57;99697.81;4952628;28;20535;-78
2021/10/20 05:21:34;;;;;;;31.85;10.43;;;;;;;4.17;52.93;99695.00;4937808;29;20448;-78
2021/10/20 05:24:03;;;;;;;19.77;8.13;;;;;;;4.18;52.74;99690.41;4937785;29;20047;-78
2021/10/20 05:26:32;;;;;;;21.05;7.65;;;;;;;4.23;52.65;99696.75;4954176;29;20516;-78
2021/10/20 05:28:58;;;;;;;14.50;5.90;;;;;;;4.26;52.50;99679.25;4956322;28;20436;-79
2021/10/20 05:31:27;;;;;;;15.10;4.45;;;;;;;4.24;52.65;99682.16;4956008;29;20058;-79
2021/10/20 05:33:55;;;;;;;15.13;4.32;;;;;;;4.37;52.42;99683.00;4953911;28;20314;-79
2021/10/20 05:36:23;;;;;;;9.98;3.85;;;;;;;4.44;52.36;99693.69;4955051;28;20058;-79
2021/10/20 05:38:49;;;;;;;15.20;3.33;;;;;;;4.50;52.27;99693.59;4919142;29;20048;-78
2021/10/20 05:41:18;;;;;;;11.82;2.80;;;;;;;4.48;52.00;99681.31;4937392;29;20473;-79
2021/10/20 05:43:44;;;;;;;10.00;2.70;;;;;;;4.58;51.85;99700.53;4951777;29;20062;-79
2021/10/20 05:46:10;;;;;;;12.82;3.33;;;;;;;4.64;51.76;99701.47;4954258;29;20524;-78
2021/10/20 05:48:36;;;;;;;9.75;3.15;;;;;;;4.64;51.76;99694.13;4952677;28;20098;-79
2021/10/20 05:51:06;;;;;;;11.27;3.10;;;;;;;4.69;51.72;99693.44;4954903;29;20692;-79
2021/10/20 05:53:32;;;;;;;9.65;3.05;;;;;;;4.73;51.68;99686.47;4956469;29;20055;-79
2021/10/20 05:55:58;;;;;;;10.15;2.83;;;;;;;4.77;51.61;99690.38;4949931;29;20043;-79
2021/10/20 05:58:24;;;;;;;11.13;2.50;;;;;;;4.74;51.42;99690.81;4943844;29;20051;-79
2021/10/20 06:00:50;;;;;;;8.60;2.53;;;;;;;4.78;51.37;99694.72;4939097;29;20432;-79
2021/10/20 06:03:16;;;;;;;11.40;2.42;;;;;;;4.76;51.31;99682.47;4952865;29;20508;-79
2021/10/20 06:05:45;;;;;;;8.80;2.45;;;;;;;4.90;51.26;99696.56;4954578;29;20067;-79
2021/10/20 06:08:16;;;;;;;8.70;2.25;;;;;;;4.96;50.93;99691.00;4953908;29;20118;-79
2021/10/20 06:10:44;;;;;;;10.57;2.53;;;;;;;4.98;50.62;99690.78;4955603;28;20066;-79
2021/10/20 06:13:10;;;;;;;8.52;2.55;;;;;;;5.08;50.66;99695.56;4954402;29;20051;-79
2021/10/20 06:15:37;;;;;;;8.75;2.38;;;;;;;5.14;50.69;99697.31;4954702;29;20063;-79
2021/10/20 06:18:06;;;;;;;12.68;2.38;;;;;;;5.17;50.36;99686.00;4953056;29;20063;-79
2021/10/20 06:20:32;;;;;;;7.53;2.45;;;;;;;5.30;50.22;99697.59;4954577;28;20055;-79
2021/10/20 06:22:58;;;;;;;18.73;2.65;;;;;;;5.29;50.29;99687.81;4949928;29;20118;-79
2021/10/20 06:25:29;;;;;;;9.48;2.67;;;;;;;5.41;50.21;99702.16;4938528;29;20055;-80
2021/10/20 06:27:55;;;;;;;12.15;2.65;;;;;;;5.58;49.73;99693.22;4951808;29;20058;-80
2021/10/20 06:30:22;;;;;;;10.63;2.40;;;;;;;5.74;49.43;99702.47;4952280;28;20055;-80
2021/10/20 06:32:48;;;;;;;14.65;2.75;;;;;;;5.70;49.33;99702.13;4935226;29;20739;-79
2021/10/20 06:35:17;;;;;;;13.40;2.58;;;;;;;5.75;49.14;99706.81;4951756;28;20059;-80
2021/10/20 06:37:47;;;;;;;14.25;2.65;;;;;;;5.65;48.98;99702.06;4952456;29;20789;-80
2021/10/20 06:40:13;;;;;;;9.90;3.00;;;;;;;5.63;48.99;99694.16;4937073;29;20455;-79
2021/10/20 06:42:40;;;;;;;13.63;3.20;;;;;;;5.63;48.71;99696.06;4952175;29;20051;-79
2021/10/20 06:45:07;;;;;;;14.75;3.05;;;;;;;5.67;48.60;99680.94;4953682;29;20067;-79
2021/10/20 06:47:37;;;;;;;14.05;2.97;;;;;;;5.58;48.57;99676.94;4953393;28;20149;-79
2021/10/20 06:50:06;;;;;;;9.80;2.65;;;;;;;5.55;48.24;99683.72;4953114;29;20687;-79
2021/10/20 06:52:33;;;;;;;11.48;3.28;;;;;;;5.48;48.26;99677.59;4951551;29;20512;-79
2021/10/20 06:55:03;;;;;;;9.55;3.10;;;;;;;5.50;48.18;99678.19;4954855;28;20063;-80
2021/10/20 06:57:29;;;;;;;12.95;3.20;;;;;;;5.27;48.15;99646.59;4952990;29;20496;-80
2021/10/20 06:59:57;;;;;;;11.95;3.63;;;;;;;5.42;48.20;99682.09;4952945;29;20063;-79
2021/10/20 07:02:23;;;;;;;9.68;3.15;;;;;;;5.22;48.05;99648.13;4950102;29;20054;-78
2021/10/20 07:04:49;;;;;;;10.93;2.60;;;;;;;5.39;48.29;99678.00;4951038;29;20145;-78
2021/10/20 07:07:15;;;;;;;7.65;1.80;;;;;;;5.17;48.51;99693.28;4950775;29;20579;-78
2021/10/20 07:09:41;;;;;;;4.45;1.52;;;;;;;5.10;48.68;99678.00;4950883;29;20048;-76
2021/10/20 07:12:07;;;;;;;7.15;1.85;;;;;;;5.06;48.68;99673.31;4952270;29;20078;-75
2021/10/20 07:14:34;;;;;;;10.90;2.13;;;;;;;5.04;48.85;99675.44;4949912;28;20520;-75
2021/10/20 07:17:04;;;;;;;6.30;1.90;;;;;;;5.06;48.73;99673.31;4945261;29;20126;-75
2021/10/20 07:19:31;;;;;;;4.80;1.77;;;;;;;4.88;49.43;99685.97;4967143;28;20051;-75
2021/10/20 07:21:59;;;;;;;8.32;1.70;;;;;;;4.60;49.92;99676.72;4941348;29;20067;-75
2021/10/20 07:24:25;;;;;;;10.07;2.03;;;;;;;4.61;50.02;99662.13;4953641;28;20070;-74
2021/10/20 07:26:51;;;;;;;6.63;1.85;;;;;;;4.72;49.90;99673.19;4953012;28;20066;-75
2021/10/20 07:29:17;;;;;;;5.53;1.85;;;;;;;4.75;50.18;99680.81;4948817;28;20521;-74
2021/10/20 07:31:43;;;;;;;5.40;1.60;;;;;;;4.76;50.12;99677.06;4946513;28;20056;-74
2021/10/20 07:34:10;;;;;;;4.93;1.75;;;;;;;4.85;50.07;99667.50;4952478;29;20302;-74
2021/10/20 07:36:37;;;;;;;9.63;2.17;;;;;;;4.80;50.12;99667.38;4952325;29;20077;-75
2021/10/20 07:39:04;;;;;;;6.87;1.93;;;;;;;4.91;49.77;99655.69;4949992;29;20131;-74
2021/10/20 07:41:30;;;;;;;5.35;1.75;;;;;;;4.90;49.84;99664.88;4934350;29;20055;-74
2021/10/20 07:43:56;;;;;;;5.78;1.73;;;;;;;5.01;49.79;99668.59;4942693;29;20086;-75
2021/10/20 07:46:25;;;;;;;5.40;1.83;;;;;;;4.89;49.62;99640.72;4953338;29;20535;-75
2021/10/20 07:48:51;;;;;;;8.35;1.88;;;;;;;5.10;49.27;99644.66;4952594;29;20051;-74
2021/10/20 07:51:18;;;;;;;6.70;2.00;;;;;;;5.08;49.57;99650.34;4945074;28;20047;-74
2021/10/20 07:53:44;;;;;;;10.50;2.10;;;;;;;5.15;49.63;99652.91;4953774;28;20202;-75
2021/10/20 07:56:10;;;;;;;7.38;2.00;;;;;;;5.20;49.27;99644.84;4953907;28;20493;-77
2021/10/20 07:58:36;;;;;;;7.30;1.88;;;;;;;5.24;49.47;99646.00;4954167;29;20075;-75
2021/10/20 08:01:02;;;;;;;7.05;2.17;;;;;;;5.00;49.64;99617.38;4953474;28;20094;-75
2021/10/20 08:03:28;;;;;;;6.55;2.03;;;;;;;5.23;49.56;99636.22;4928068;29;20514;-75
2021/10/20 08:05:55;;;;;;;6.03;2.10;;;;;;;5.14;49.63;99639.56;4933253;29;20059;-75
2021/10/20 08:08:22;;;;;;;7.72;2.22;;;;;;;5.14;49.61;99636.88;4939654;29;20058;-74
2021/10/20 08:10:48;;;;;;;6.18;1.90;;;;;;;5.15;49.52;99649.34;4931296;29;20063;-75
2021/10/20 08:13:14;;;;;;;6.22;1.88;;;;;;;5.16;49.48;99646.41;4933228;29;20063;-75
2021/10/20 08:15:43;;;;;;;7.93;2.20;;;;;;;5.04;49.83;99643.72;4933162;29;20067;-74
2021/10/20 08:18:10;;;;;;;6.28;2.10;;;;;;;5.10;49.79;99639.22;4951960;29;20051;-73
2021/10/20 08:20:36;;;;;;;4.80;1.80;;;;;;;4.97;49.91;99643.88;4953224;28;20409;-75
2021/10/20 08:23:04;;;;;;;9.50;2.10;;;;;;;4.96;49.82;99634.09;4953357;29;20449;-75
2021/10/20 08:25:36;;;;;;;5.93;1.90;;;;;;;4.76;50.42;99649.97;4936062;29;20319;-75
2021/10/20 08:28:05;;;;;;;6.78;1.90;;;;;;;4.29;51.31;99654.41;4949185;29;20464;-75
2021/10/20 08:30:32;;;;;;;6.00;2.08;;;;;;;3.99;52.26;99622.06;4951266;29;20065;-74
2021/10/20 08:32:58;;;;;;;6.15;1.85;;;;;;;3.99;52.20;99633.69;4951436;29;20050;-75
2021/10/20 08:35:24;;;;;;;6.35;1.67;;;;;;;3.82;52.25;99610.06;4949202;29;20102;-74
2021/10/20 08:38:03;;;;;;;3.80;1.20;;;;;;;3.95;51.74;99625.22;4934021;29;20606;-74
2021/10/20 08:40:33;;;;;;;5.78;1.50;;;;;;;4.01;51.75;99611.84;4949502;29;20070;-75
2021/10/20 08:43:01;;;;;;;6.15;1.63;;;;;;;3.99;51.76;99597.72;4950944;28;20499;-74
2021/10/20 08:45:28;;;;;;;5.60;1.60;;;;;;;4.07;51.69;99598.19;4946620;29;20051;-75
2021/10/20 08:47:54;;;;;;;3.87;1.30;;;;;;;3.82;52.53;99593.81;4936031;29;20158;-75
2021/10/20 08:50:23;;;;;;;9.63;1.80;;;;;;;4.04;52.04;99606.75;4935653;29;20342;-74
2021/10/20 08:52:50;;;;;;;6.78;1.80;;;;;;;4.03;52.00;99605.09;4950259;28;20460;-74
2021/10/20 08:55:16;;;;;;;3.78;1.48;;;;;;;4.03;52.09;99601.59;4935829;29;20055;-74
2021/10/20 08:57:46;;;;;;;17.38;1.98;;;;;;;4.01;52.13;99612.63;4953104;29;20187;-74
2021/10/20 09:00:15;;;;;;;6.85;1.73;;;;;;;3.77;52.86;99598.28;4951817;28;20147;-73
2021/10/20 09:02:41;;;;;;;4.00;1.48;;;;;;;3.69;52.57;99605.72;4941198;29;20154;-74
2021/10/20 09:05:08;;;;;;;4.65;1.70;;;;;;;3.48;52.77;99598.13;4918961;29;20453;-74
2021/10/20 09:07:40;;;;;;;5.57;1.40;;;;;;;3.50;53.02;99588.75;4916934;29;20479;-76
2021/10/20 09:10:10;;;;;;;4.43;1.60;;;;;;;3.34;53.37;99594.84;4941002;29;20059;-75
2021/10/20 09:12:38;;;;;;;4.38;1.50;;;;;;;3.22;53.36;99581.31;4935819;29;20516;-75
2021/10/20 09:15:06;;;;;;;4.78;1.60;;;;;;;3.32;53.22;99581.53;4952157;28;20543;-74
2021/10/20 09:17:44;;;;;;;5.57;1.83;;;;;;;3.27;53.53;99557.09;4932707;28;20130;-76
2021/10/20 09:20:20;;;;;;;5.05;1.38;;;;;;;3.32;53.25;99565.31;4931157;29;20059;-76
2021/10/20 09:23:09;;;;;;;3.63;1.35;;;;;;;3.30;53.41;99586.38;4935188;28;20054;-76
2021/10/20 09:25:38;;;;;;;5.43;1.70;;;;;;;3.38;53.55;99566.28;4939276;29;20064;-76
2021/10/20 09:28:06;;;;;;;5.72;1.55;;;;;;;3.79;52.43;99569.97;4940957;29;20051;-75
2021/10/20 09:30:33;;;;;;;4.30;1.60;;;;;;;4.37;51.07;99562.00;4978907;28;20517;-76
2021/10/20 09:33:01;;;;;;;8.50;1.98;;;;;;;4.60;50.48;99554.03;4937042;29;20453;-74
2021/10/20 09:35:30;;;;;;;4.57;1.70;;;;;;;4.74;50.70;99568.94;4944780;28;20055;-75
2021/10/20 09:37:58;;;;;;;4.30;1.60;;;;;;;4.92;50.34;99564.41;4946600;29;20060;-75
2021/10/20 09:40:25;;;;;;;5.53;2.00;;;;;;;5.33;49.62;99556.97;4943579;29;20075;-74
2021/10/20 09:42:56;;;;;;;7.97;1.88;;;;;;;5.50;49.31;99554.25;4933699;29;20055;-75
2021/10/20 09:45:23;;;;;;;6.00;1.75;;;;;;;5.58;49.23;99555.72;4916499;29;20146;-75
2021/10/20 09:47:50;;;;;;;12.25;2.20;;;;;;;5.79;48.86;99565.00;4939747;29;20111;-76
2021/10/20 09:50:17;;;;;;;6.97;1.80;;;;;;;5.84;48.84;99560.72;4951478;28;20069;-75
2021/10/20 09:52:45;;;;;;;6.82;2.05;;;;;;;5.78;48.70;99551.69;4950782;29;20058;-76
2021/10/20 09:55:16;;;;;;;8.70;2.08;;;;;;;5.69;48.83;99516.00;4952336;28;20065;-78
2021/10/20 09:57:42;;;;;;;8.63;1.90;;;;;;;5.77;48.63;99518.28;4954846;28;20142;-75
2021/10/20 10:00:12;;;;;;;10.10;2.05;;;;;;;5.91;48.20;99526.91;4955494;29;20059;-75
2021/10/20 10:02:38;;;;;;;8.82;1.70;;;;;;;5.94;48.07;99533.75;4954762;29;20063;-75
2021/10/20 10:05:08;;;;;;;3.70;1.45;;;;;;;5.81;48.10;99543.88;4956055;28;20423;-74
2021/10/20 10:07:38;;;;;;;4.88;1.75;;;;;;;5.86;47.45;99528.72;4955376;29;20051;-75
2021/10/20 10:10:05;;;;;;;7.47;1.95;;;;;;;5.77;47.43;99498.50;4955920;29;20073;-78
2021/10/20 10:12:32;;;;;;;6.00;1.80;;;;;;;6.14;47.49;99500.63;4954576;29;20536;-75
2021/10/20 10:15:07;;;;;;;9.18;1.58;;;;;;;6.23;46.29;99501.81;4938414;29;20091;-77
2021/10/20 10:17:36;;;;;;;7.95;1.75;;;;;;;6.47;45.80;99492.59;4935804;29;20599;-77
2021/10/20 10:20:08;;;;;;;5.70;1.85;;;;;;;6.59;45.16;99479.69;4954499;29;20585;-77
2021/10/20 10:22:49;;;;;;;7.30;1.60;;;;;;;6.98;44.65;99488.72;4938227;29;20099;-77
2021/10/20 10:25:15;;;;;;;3.20;1.35;;;;;;;7.01;44.75;99477.31;4955013;28;20058;-76
2021/10/20 10:27:59;;;;;;;5.97;1.90;;;;;;;7.15;44.34;99483.97;4950560;29;20043;-76
2021/10/20 10:30:25;;;;;;;5.68;1.80;;;;;;;7.03;44.36;99467.03;4940418;29;20062;-76
2021/10/20 10:32:57;;;;;;;5.60;1.70;;;;;;;7.11;43.70;99471.97;4955092;28;20051;-75
2021/10/20 10:35:30;;;;;;;4.38;1.40;;;;;;;7.21;43.74;99485.66;4952373;28;20425;-75
2021/10/20 10:38:05;;;;;;;8.48;1.48;;;;;;;7.03;43.36;99467.84;4935130;29;20056;-76
2021/10/20 10:40:34;;;;;;;5.80;1.77;;;;;;;6.66;43.88;99450.41;4919370;29;20066;-76
2021/10/20 10:43:06;;;;;;;5.40;1.58;;;;;;;6.52;43.90;99435.59;4936281;29;20090;-77
2021/10/20 10:45:32;;;;;;;5.82;1.50;;;;;;;6.45;43.90;99433.06;4945892;29;20397;-76
2021/10/20 10:48:00;;;;;;;8.23;1.57;;;;;;;6.39;43.97;99428.69;4953900;29;20428;-77
2021/10/20 10:50:41;;;;;;;5.15;1.73;;;;;;;6.23;44.49;99406.78;4953707;28;20082;-76
2021/10/20 10:53:25;;;;;;;4.90;1.35;;;;;;;5.94;44.37;99423.28;4953510;29;20055;-75
2021/10/20 10:56:02;;;;;;;5.68;1.63;;;;;;;5.43;45.20;99433.47;4951890;28;20055;-76
2021/10/20 10:58:28;;;;;;;3.83;1.65;;;;;;;5.60;45.57;99407.13;4953629;29;20062;-77
2021/10/20 11:00:54;;;;;;;7.90;1.85;;;;;;;5.61;45.70;99413.34;4952442;29;20059;-76
2021/10/20 11:03:23;;;;;;;5.90;1.90;;;;;;;5.51;46.15;99433.03;4951658;29;20059;-77
2021/10/20 11:05:51;;;;;;;4.85;1.70;;;;;;;5.49;46.26;99427.03;4948210;28;20476;-77
2021/10/20 11:08:20;;;;;;;6.00;2.05;;;;;;;5.30;46.89;99416.47;4935522;29;20058;-77
2021/10/20 11:10:49;;;;;;;8.00;2.25;;;;;;;4.96;47.98;99416.53;4935233;29;20055;-77
2021/10/20 11:13:16;;;;;;;6.93;2.10;;;;;;;5.31;47.24;99420.81;4951037;29;20074;-76
2021/10/20 11:15:43;;;;;;;4.70;1.70;;;;;;;5.30;47.30;99412.94;4954122;29;20056;-77
2021/10/20 11:18:09;;;;;;;7.18;2.00;;;;;;;5.41;46.79;99417.44;4951527;29;20075;-76
2021/10/20 11:20:38;;;;;;;8.82;1.83;;;;;;;5.45;46.75;99407.72;4952324;28;20405;-77
2021/10/20 11:23:06;;;;;;;5.63;1.65;;;;;;;5.46;46.45;99392.28;4948935;29;20055;-77
2021/10/20 11:25:36;;;;;;;;;;;;;;;5.41;46.68;99422.84;4934031;29;20056;-74
2021/10/20 11:28:06;;;;;;;5.20;1.60;;;;;;;5.13;46.85;99397.53;4935132;29;19981;-76
2021/10/20 11:30:36;;;;;;;4.65;1.52;;;;;;;5.10;46.57;99430.53;4934987;29;20508;-76
2021/10/20 11:33:06;;;;;;;6.72;1.73;;;;;;;4.94;46.34;99418.66;4949973;29;20623;-76
2021/10/20 11:35:33;;;;;;;5.10;1.45;;;;;;;4.81;45.35;99428.75;4933550;29;20081;-76
2021/10/20 11:38:02;;;;;;;5.97;1.50;;;;;;;4.83;45.42;99406.81;4949600;29;20051;-76
2021/10/20 11:40:31;;;;;;;4.57;1.50;;;;;;;4.81;45.80;99407.06;4951833;29;20079;-73
2021/10/20 11:42:58;;;;;;;5.65;1.30;;;;;;;4.80;46.15;99377.50;4952350;29;20043;-73